• Join FlightAware (Why Join?)
  • Login
  • US Flag 
09:45PM EST


 

Airport Tracker/Info


-or-


 

Live Flight TrackerFlight Track Log ✈ VH-SMM ✈ 16-Jul-2013 ✈ YBSU / MCY - YBSU / MCY

Flight Track Log - Related Links

Times and Time Zones

All times are in EDT time to prevent confusion due to time zone crossing. See the VH-SMM flight status page for this flight to view local times or setup timezone preferences in your user account.

Time Position Orientation Groundspeed Altitude Reporting Facility
EDT Latitude Longitude Course Direction KTS MPH feet Rate Location/Type
11:54PM -26.6242 153.0853 271° West 96 110 900  Level Aus ATC (RADAR)
11:55PM -26.6238 153.0589 271° West 115 132 1,300 540 Climbing Aus ATC (RADAR)
11:56PM -26.6077 153.0572 355° North 94 108 1,700 660 Climbing Aus ATC (RADAR)
11:56PM -26.5879 153.0576 North 92 106 2,200 660 Climbing Aus ATC (RADAR)
11:57PM -26.5731 153.0604 10° North 91 105 2,600 660 Climbing Aus ATC (RADAR)
11:58PM -26.5596 153.0596 357° North 87 100 3,000 420 Climbing Aus ATC (RADAR)
11:58PM -26.5516 153.0326 288° West 107 123 3,200  Climbing Aus ATC (RADAR)
11:59PM -26.5338 152.9974 299° West 134 154 3,000 -120 Descending Aus ATC (RADAR)
12:00AM -26.5140 152.9771 318° Northwest 131 151 3,000  Level Aus ATC (RADAR)
12:01AM -26.4963 152.9660 331° Northwest 125 144 3,000  Level Aus ATC (RADAR)
12:01AM -26.4834 152.9522 316° Northwest 125 144 3,000  Level Aus ATC (RADAR)
12:02AM -26.4641 152.9256 309° West 128 147 3,000  Level Aus ATC (RADAR)
12:03AM -26.4406 152.8946 310° West 129 148 3,100  Climbing Aus ATC (RADAR)
12:04AM -26.4224 152.8718 312° West 129 148 3,100 -120 Level Aus ATC (RADAR)
12:04AM -26.4075 152.8546 314° West 131 151 3,000  Descending Aus ATC (RADAR)
12:05AM -26.3923 152.8782 54° Northeast 126 145 3,100 -60 Climbing Aus ATC (RADAR)
12:06AM -26.3951 152.9118 95° East 126 145 2,900 -60 Descending Aus ATC (RADAR)
12:07AM -26.4126 152.9457 120° Southeast 101 116 3,000  Climbing Aus ATC (RADAR)
12:08AM -26.4098 152.9811 85° East 108 124 2,900 -60 Descending Aus ATC (RADAR)
12:09AM -26.4189 153.0065 112° Southeast 122 140 2,900  Level Aus ATC (RADAR)
12:10AM -26.4328 153.0207 137° Southeast 119 137 2,900 -240 Level Aus ATC (RADAR)
12:10AM -26.4606 153.0252 172° South 130 150 2,600 -540 Descending Aus ATC (RADAR)
12:11AM -26.4978 153.0363 165° South 135 155 2,000 -360 Descending Aus ATC (RADAR)
12:12AM -26.5168 153.0512 145° Southeast 111 128 2,000 -360 Level Aus ATC (RADAR)
12:13AM -26.5472 153.0620 162° South 115 132 1,400 -360 Descending Aus ATC (RADAR)
12:15AM -26.5851 153.0827 154° Southeast 100 115 1,200 -120 Descending Aus ATC (RADAR)
12:15AM -26.6071 153.0911 161° South 100 115 1,200  Level Aus ATC (RADAR)